Airfield :
LOGIN :

Register | Disclaimer

   EN    FR    IT 

 










Legend :    VFR   Marginal VFR   IFR   Intensive IFR   Very Intensive IFR
Visi :
Ceiling :
>= 8 km
>= 3000ft
5 to 8 km
1000 to 3000 ft
1500m to 5 km
500 to 1000 ft
800 to 1500m
200 to 500 ft
< 800m
< 200 ft
Symbols :   Thunderstorms  Fog  Heavy snow  Heavy precipitations  Wind > 20 kt
SIGMETs :     Misc.  Thunderstorms  Icing  Turbulence  Mountain Waves  Volcanic Ashes






- Airport Elevation : 2356 ft


LZTT - Poprad Tatry

CURRENT METAR :
  • 240630Z 25004KT 220V310 9999 SCT020 BKN056 06/03 Q1003 NOSIG

EXPIRED METARs :
  • 240600Z VRB02KT 9999 FEW020 BKN056 OVC082 05/02 Q1003 NOSIG
  • 240530Z 25003KT 220V290 9999 FEW011 SCT054 04/02 Q1003 NOSIG
  • 240500Z 31004KT 9999 SCT011 03/02 Q1003 NOSIG
  • 240430Z VRB01KT 9999 BKN011 04/02 Q1003
  • 240400Z VRB01KT 9999 BKN011 03/02 Q1003
  • 240330Z VRB01KT 9999 BKN014 03/02 Q1004
  • 240300Z 35002KT 9999 OVC014 03/02 Q1004
  • 240230Z 09001KT 9999 OVC014 03/02 Q1004

TAF TAF LZTT
Valid from the 24 at 06:00 until the 25 at 06:00 UTC


240515Z 2406/2506 27004KT 9999 SCT012 SCT020 BKN040
TEMPO 2406/2412 -RA BKN010 BKN020
BECMG 2410/2412 08006KT
TEMPO 2412/2423 2500 RA BR BKN004 OVC010
BECMG 2423/2501 27007KT
PROB30
TEMPO 2423/2506 1500 RASN



MET'MAP, your aeronautical weather chart ! - Copyright ORBIFLY December 2007 - Disclaimer

ORBIFLY MET'MAP TEAM :

Programming & Development : Alexandra Zaïnal
Original concept : Baudouin d'Aumeries
Technical & hardware support : Manuel Goepfert
Assistance : Marc-Olivier Méhu




SOURCES & CREDITS :

   NOAA